Time,TemperatureF,DewpointF,PressureIn,WindDirection,WindDirectionDegrees,WindSpeedMPH,WindSpeedGustMPH,Humidity,HourlyPrecipIn,Conditions,Clouds,dailyrainin,SoftwareType,DateUTC
2013-02-15 00:02:00,44.2,43.1,30.05,WNW,301,5.0,5.0,96,0.00,,,0.00,Wunderground v.1.15,2013-02-15 00:02:00,
2013-02-15 00:08:00,44.2,43.1,30.05,NW,309,4.0,5.0,96,0.00,,,0.00,Wunderground v.1.15,2013-02-15 00:08:00,
2013-02-15 00:15:00,44.1,43.0,30.06,WNW,297,5.0,9.0,96,0.00,,,0.00,Wunderground v.1.15,2013-02-15 00:15:00,
2013-02-15 00:22:00,44.2,43.1,30.06,NW,315,6.0,7.0,96,0.00,,,0.00,Wunderground v.1.15,2013-02-15 00:22:00,
2013-02-15 00:28:00,44.2,43.1,30.06,West,274,6.0,7.0,96,0.00,,,0.00,Wunderground v.1.15,2013-02-15 00:28:00,
2013-02-15 00:35:00,44.2,43.1,30.06,WNW,296,5.0,6.0,96,0.00,,,0.00,Wunderground v.1.15,2013-02-15 00:35:00,
2013-02-15 00:42:00,44.2,43.1,30.06,NW,319,5.0,6.0,96,0.00,,,0.00,Wunderground v.1.15,2013-02-15 00:42:00,
2013-02-15 00:48:00,44.1,43.0,30.06,WNW,302,5.0,6.0,96,0.00,,,0.00,Wunderground v.1.15,2013-02-15 00:48:00,
2013-02-15 00:55:00,44.1,43.0,30.06,NW,305,5.0,6.0,96,0.00,,,0.00,Wunderground v.1.15,2013-02-15 00:55:00,
2013-02-15 01:02:00,44.1,43.0,30.07,NW,307,6.0,7.0,96,0.00,,,0.00,Wunderground v.1.15,2013-02-15 01:02:00,
2013-02-15 01:09:00,44.0,42.9,30.07,NW,309,6.0,7.0,96,0.00,,,0.00,Wunderground v.1.15,2013-02-15 01:09:00,
2013-02-15 01:15:00,44.0,42.9,30.07,NW,305,5.0,6.0,96,0.00,,,0.00,Wunderground v.1.15,2013-02-15 01:15:00,
2013-02-15 01:22:00,43.9,42.8,30.07,WNW,300,5.0,7.0,96,0.00,,,0.00,Wunderground v.1.15,2013-02-15 01:22:00,
2013-02-15 01:28:00,44.0,42.9,30.07,WNW,296,5.0,9.0,96,0.00,,,0.00,Wunderground v.1.15,2013-02-15 01:28:00,
2013-02-15 01:35:00,43.9,42.8,30.07,WNW,301,6.0,10.0,96,0.00,,,0.00,Wunderground v.1.15,2013-02-15 01:35:00,
2013-02-15 01:42:00,43.9,42.8,30.07,NW,305,7.0,9.0,96,0.00,,,0.00,Wunderground v.1.15,2013-02-15 01:42:00,
2013-02-15 01:48:00,43.9,42.8,30.07,NW,307,6.0,7.0,96,0.00,,,0.00,Wunderground v.1.15,2013-02-15 01:48:00,
2013-02-15 01:55:00,43.9,42.8,30.07,NW,310,6.0,6.0,96,0.00,,,0.00,Wunderground v.1.15,2013-02-15 01:55:00,
2013-02-15 02:02:00,43.9,42.8,30.08,NW,321,6.0,7.0,96,0.00,,,0.00,Wunderground v.1.15,2013-02-15 02:02:00,
2013-02-15 02:08:00,43.8,42.7,30.07,NW,316,6.0,9.0,96,0.00,,,0.00,Wunderground v.1.15,2013-02-15 02:08:00,
2013-02-15 02:15:00,43.8,42.7,30.08,WNW,300,7.0,7.0,96,0.00,,,0.00,Wunderground v.1.15,2013-02-15 02:15:00,
2013-02-15 02:22:00,43.8,42.7,30.08,WNW,292,7.0,7.0,96,0.00,,,0.00,Wunderground v.1.15,2013-02-15 02:22:00,
2013-02-15 02:28:00,43.8,42.7,30.08,WNW,298,7.0,7.0,96,0.00,,,0.00,Wunderground v.1.15,2013-02-15 02:28:00,
2013-02-15 02:35:00,43.8,43.0,30.08,NW,309,7.0,7.0,97,0.00,,,0.00,Wunderground v.1.15,2013-02-15 02:35:00,
2013-02-15 02:42:00,43.9,42.8,30.07,NW,321,7.0,11.0,96,0.00,,,0.00,Wunderground v.1.15,2013-02-15 02:42:00,
2013-02-15 02:48:00,43.8,42.7,30.08,WNW,302,6.0,8.0,96,0.00,,,0.00,Wunderground v.1.15,2013-02-15 02:48:00,
2013-02-15 02:55:00,43.7,42.6,30.08,NW,305,5.0,9.0,96,0.00,,,0.00,Wunderground v.1.15,2013-02-15 02:55:00,
2013-02-15 03:02:00,43.7,42.6,30.07,NW,316,6.0,10.0,96,0.00,,,0.00,Wunderground v.1.15,2013-02-15 03:02:00,
2013-02-15 03:09:00,43.6,42.5,30.08,NW,317,6.0,7.0,96,0.00,,,0.00,Wunderground v.1.15,2013-02-15 03:09:00,
2013-02-15 03:15:00,43.6,42.5,30.08,NNW,338,5.0,6.0,96,0.00,,,0.00,Wunderground v.1.15,2013-02-15 03:15:00,
2013-02-15 03:22:00,43.5,42.4,30.08,NW,312,5.0,5.0,96,0.00,,,0.00,Wunderground v.1.15,2013-02-15 03:22:00,
2013-02-15 03:28:00,43.4,42.3,30.07,NW,306,5.0,9.0,96,0.00,,,0.00,Wunderground v.1.15,2013-02-15 03:28:00,
2013-02-15 03:35:00,43.4,42.3,30.08,NW,317,5.0,6.0,96,0.00,,,0.00,Wunderground v.1.15,2013-02-15 03:35:00,
2013-02-15 03:41:00,43.5,42.7,30.07,NW,311,5.0,6.0,97,0.00,,,0.00,Wunderground v.1.15,2013-02-15 03:41:00,
2013-02-15 03:48:00,43.6,42.8,30.08,WNW,302,4.0,5.0,97,0.00,,,0.00,Wunderground v.1.15,2013-02-15 03:48:00,
2013-02-15 03:55:00,43.8,43.0,30.08,NW,315,4.0,4.0,97,0.00,,,0.00,Wunderground v.1.15,2013-02-15 03:55:00,
2013-02-15 04:02:00,44.0,43.2,30.08,NW,315,4.0,7.0,97,0.00,,,0.00,Wunderground v.1.15,2013-02-15 04:02:00,
2013-02-15 04:08:00,44.1,43.3,30.08,WNW,300,6.0,7.0,97,0.00,,,0.00,Wunderground v.1.15,2013-02-15 04:08:00,
2013-02-15 04:15:00,44.1,43.3,30.08,NNW,340,5.0,6.0,97,0.00,,,0.00,Wunderground v.1.15,2013-02-15 04:15:00,
2013-02-15 04:22:00,44.1,43.3,30.08,NW,311,4.0,5.0,97,0.00,,,0.00,Wunderground v.1.15,2013-02-15 04:22:00,
2013-02-15 04:28:00,44.2,43.4,30.08,North,5,2.0,3.0,97,0.00,,,0.00,Wunderground v.1.15,2013-02-15 04:28:00,
2013-02-15 04:35:00,44.2,43.4,30.08,NNW,332,2.0,4.0,97,0.00,,,0.00,Wunderground v.1.15,2013-02-15 04:35:00,
2013-02-15 04:41:00,44.1,43.3,30.08,WNW,300,4.0,4.0,97,0.00,,,0.00,Wunderground v.1.15,2013-02-15 04:41:00,
2013-02-15 04:48:00,44.1,43.3,30.08,NNW,348,3.0,3.0,97,0.00,,,0.00,Wunderground v.1.15,2013-02-15 04:48:00,
2013-02-15 04:54:00,44.1,43.3,30.08,NNW,348,1.0,3.0,97,0.00,,,0.00,Wunderground v.1.15,2013-02-15 04:54:00,
2013-02-15 05:01:00,44.0,42.9,30.09,NNW,347,1.0,3.0,96,0.00,,,0.00,Wunderground v.1.15,2013-02-15 05:01:00,
2013-02-15 05:04:00,43.9,42.8,30.09,NNW,345,1.0,2.0,96,0.00,,,0.00,Wunderground v.1.15,2013-02-15 05:04:00,
2013-02-15 05:11:00,43.7,42.6,30.09,North,10,2.0,2.0,96,0.00,,,0.00,Wunderground v.1.15,2013-02-15 05:11:00,
2013-02-15 05:14:00,43.6,42.5,30.09,NW,317,2.0,3.0,96,0.00,,,0.00,Wunderground v.1.15,2013-02-15 05:14:00,
2013-02-15 05:21:00,43.5,42.4,30.09,NW,316,2.0,2.0,96,0.00,,,0.00,Wunderground v.1.15,2013-02-15 05:21:00,
2013-02-15 05:28:00,43.4,42.3,30.09,NW,313,2.0,2.0,96,0.00,,,0.00,Wunderground v.1.15,2013-02-15 05:28:00,
2013-02-15 05:34:00,43.4,42.6,30.10,NW,306,3.0,3.0,97,0.00,,,0.00,Wunderground v.1.15,2013-02-15 05:34:00,
2013-02-15 05:41:00,43.4,42.6,30.10,NW,323,3.0,3.0,97,0.00,,,0.00,Wunderground v.1.15,2013-02-15 05:41:00,
2013-02-15 05:48:00,43.4,42.6,30.10,NW,322,2.0,3.0,97,0.00,,,0.00,Wunderground v.1.15,2013-02-15 05:48:00,
2013-02-15 05:54:00,43.4,42.6,30.10,NW,322,2.0,2.0,97,0.00,,,0.00,Wunderground v.1.15,2013-02-15 05:54:00,
2013-02-15 06:01:00,43.5,42.7,30.10,NW,320,2.0,2.0,97,0.00,,,0.00,Wunderground v.1.15,2013-02-15 06:01:00,
2013-02-15 06:08:00,43.5,42.7,30.10,NW,320,1.0,2.0,97,0.00,,,0.00,Wunderground v.1.15,2013-02-15 06:08:00,
2013-02-15 06:14:00,43.6,42.8,30.10,NW,315,2.0,2.0,97,0.00,,,0.00,Wunderground v.1.15,2013-02-15 06:14:00,
2013-02-15 06:21:00,43.6,42.8,30.10,NW,308,3.0,4.0,97,0.00,,,0.00,Wunderground v.1.15,2013-02-15 06:21:00,
2013-02-15 06:27:00,43.6,42.8,30.10,NW,308,2.0,3.0,97,0.00,,,0.00,Wunderground v.1.15,2013-02-15 06:27:00,
2013-02-15 06:34:00,43.6,42.8,30.11,NW,307,2.0,2.0,97,0.00,,,0.00,Wunderground v.1.15,2013-02-15 06:34:00,
2013-02-15 06:41:00,43.5,42.7,30.11,NW,307,3.0,3.0,97,0.00,,,0.00,Wunderground v.1.15,2013-02-15 06:41:00,
2013-02-15 06:47:00,43.5,42.7,30.11,NW,307,2.0,2.0,97,0.00,,,0.00,Wunderground v.1.15,2013-02-15 06:47:00,
2013-02-15 06:54:00,43.5,42.7,30.11,NW,305,2.0,3.0,97,0.00,,,0.00,Wunderground v.1.15,2013-02-15 06:54:00,
2013-02-15 07:01:00,43.4,42.3,30.11,NW,304,3.0,3.0,96,0.00,,,0.00,Wunderground v.1.15,2013-02-15 07:01:00,
2013-02-15 07:07:00,43.3,42.2,30.11,NW,304,2.0,2.0,96,0.00,,,0.00,Wunderground v.1.15,2013-02-15 07:07:00,
2013-02-15 07:14:00,43.2,42.1,30.11,WNW,302,2.0,2.0,96,0.00,,,0.00,Wunderground v.1.15,2013-02-15 07:14:00,
2013-02-15 07:21:00,43.0,41.9,30.11,WNW,302,2.0,2.0,96,0.00,,,0.00,Wunderground v.1.15,2013-02-15 07:21:00,
2013-02-15 07:27:00,42.9,41.8,30.11,WNW,302,1.0,3.0,96,0.00,,,0.00,Wunderground v.1.15,2013-02-15 07:27:00,
2013-02-15 07:34:00,42.8,41.7,30.11,WNW,302,2.0,2.0,96,0.00,,,0.00,Wunderground v.1.15,2013-02-15 07:34:00,
2013-02-15 07:41:00,42.8,41.7,30.12,WNW,302,1.0,1.0,96,0.00,,,0.00,Wunderground v.1.15,2013-02-15 07:41:00,
2013-02-15 07:47:00,42.7,41.6,30.11,WNW,302,1.0,1.0,96,0.00,,,0.00,Wunderground v.1.15,2013-02-15 07:47:00,
2013-02-15 07:54:00,42.5,41.4,30.12,WNW,302,2.0,3.0,96,0.00,,,0.00,Wunderground v.1.15,2013-02-15 07:54:00,
2013-02-15 08:25:00,42.7,41.6,30.13,West,280,3.0,3.0,96,0.00,,,0.00,Wunderground v.1.15,2013-02-15 08:25:00,
2013-02-15 08:30:00,42.8,41.7,30.12,West,277,2.0,3.0,96,0.00,,,0.00,Wunderground v.1.15,2013-02-15 08:30:00,
2013-02-15 08:35:00,42.9,41.8,30.12,West,277,3.0,4.0,96,0.00,,,0.00,Wunderground v.1.15,2013-02-15 08:35:00,
2013-02-15 08:41:00,42.9,41.8,30.12,West,277,3.0,4.0,96,0.00,,,0.00,Wunderground v.1.15,2013-02-15 08:41:00,
2013-02-15 08:46:00,43.0,41.9,30.12,West,277,2.0,3.0,96,0.00,,,0.00,Wunderground v.1.15,2013-02-15 08:46:00,
2013-02-15 08:55:00,43.1,42.0,30.13,West,273,1.0,5.0,96,0.00,,,0.00,Wunderground v.1.15,2013-02-15 08:55:00,
2013-02-15 09:05:00,43.2,42.1,30.13,West,273,3.0,4.0,96,0.00,,,0.00,Wunderground v.1.15,2013-02-15 09:05:00,
2013-02-15 09:15:00,43.1,42.0,30.13,West,273,3.0,4.0,96,0.00,,,0.00,Wunderground v.1.15,2013-02-15 09:15:00,
2013-02-15 09:20:00,43.3,42.2,30.13,West,273,3.0,3.0,96,0.00,,,0.00,Wunderground v.1.15,2013-02-15 09:20:00,
2013-02-15 09:25:00,43.5,42.4,30.14,West,266,2.0,3.0,96,0.00,,,0.00,Wunderground v.1.15,2013-02-15 09:25:00,
2013-02-15 09:30:00,43.7,42.6,30.14,West,261,2.0,5.0,96,0.00,,,0.00,Wunderground v.1.15,2013-02-15 09:30:00,
2013-02-15 09:35:00,44.0,42.9,30.14,West,265,2.0,5.0,96,0.00,,,0.00,Wunderground v.1.15,2013-02-15 09:35:00,
2013-02-15 09:40:00,44.1,43.0,30.14,West,269,3.0,4.0,96,0.00,,,0.00,Wunderground v.1.15,2013-02-15 09:40:00,
2013-02-15 09:45:00,44.3,43.2,30.14,West,271,3.0,5.0,96,0.00,,,0.00,Wunderground v.1.15,2013-02-15 09:45:00,
2013-02-15 09:50:00,44.5,43.4,30.14,West,268,4.0,4.0,96,0.00,,,0.00,Wunderground v.1.15,2013-02-15 09:50:00,
2013-02-15 10:00:00,44.6,43.5,30.14,West,276,3.0,5.0,96,0.00,,,0.00,Wunderground v.1.15,2013-02-15 10:00:00,
2013-02-15 10:10:00,45.1,44.0,30.15,West,277,2.0,2.0,96,0.00,,,0.00,Wunderground v.1.15,2013-02-15 10:10:00,
2013-02-15 10:15:00,45.2,43.9,30.15,WNW,291,2.0,3.0,95,0.00,,,0.00,Wunderground v.1.15,2013-02-15 10:15:00,
2013-02-15 10:20:00,45.2,43.9,30.15,WNW,294,2.0,2.0,95,0.00,,,0.00,Wunderground v.1.15,2013-02-15 10:20:00,
2013-02-15 10:25:00,45.1,43.5,30.14,WNW,293,3.0,3.0,94,0.00,,,0.00,Wunderground v.1.15,2013-02-15 10:25:00,
2013-02-15 10:35:00,45.0,43.4,30.15,WNW,293,2.0,2.0,94,0.00,,,0.00,Wunderground v.1.15,2013-02-15 10:35:00,
2013-02-15 10:45:00,45.2,43.6,30.15,WNW,293,1.0,2.0,94,0.00,,,0.00,Wunderground v.1.15,2013-02-15 10:45:00,
2013-02-15 10:50:00,45.7,44.1,30.15,WNW,294,1.0,2.0,94,0.00,,,0.00,Wunderground v.1.15,2013-02-15 10:50:00,
2013-02-15 11:00:00,45.9,44.0,30.15,WNW,299,1.0,1.0,93,0.00,,,0.00,Wunderground v.1.15,2013-02-15 11:00:00,
2013-02-15 11:05:00,45.8,43.6,30.15,WNW,299,1.0,1.0,92,0.00,,,0.00,Wunderground v.1.15,2013-02-15 11:05:00,
2013-02-15 11:10:00,45.7,43.5,30.15,WNW,299,2.0,2.0,92,0.00,,,0.00,Wunderground v.1.15,2013-02-15 11:10:00,
2013-02-15 11:15:00,45.6,43.4,30.15,WNW,299,1.0,2.0,92,0.00,,,0.00,Wunderground v.1.15,2013-02-15 11:15:00,
2013-02-15 11:25:00,45.4,43.2,30.15,WNW,299,2.0,2.0,92,0.00,,,0.00,Wunderground v.1.15,2013-02-15 11:25:00,
2013-02-15 11:30:00,45.5,43.3,30.15,WNW,298,2.0,3.0,92,0.00,,,0.00,Wunderground v.1.15,2013-02-15 11:30:00,
2013-02-15 11:35:00,45.7,43.5,30.15,WNW,298,2.0,3.0,92,0.00,,,0.00,Wunderground v.1.15,2013-02-15 11:35:00,
2013-02-15 11:45:00,46.3,44.1,30.15,WNW,291,3.0,4.0,92,0.00,,,0.00,Wunderground v.1.15,2013-02-15 11:45:00,
2013-02-15 11:50:00,46.7,44.2,30.15,WNW,294,3.0,3.0,91,0.00,,,0.00,Wunderground v.1.15,2013-02-15 11:50:00,
2013-02-15 11:55:00,47.1,44.3,30.15,WNW,298,3.0,3.0,90,0.00,,,0.00,Wunderground v.1.15,2013-02-15 11:55:00,
2013-02-15 12:05:00,47.6,44.8,30.15,NW,304,2.0,3.0,90,0.00,,,0.00,Wunderground v.1.15,2013-02-15 12:05:00,
2013-02-15 12:10:00,47.8,44.7,30.16,NW,304,2.0,2.0,89,0.00,,,0.00,Wunderground v.1.15,2013-02-15 12:10:00,
2013-02-15 12:20:00,47.9,44.2,30.15,NW,304,2.0,3.0,87,0.00,,,0.00,Wunderground v.1.15,2013-02-15 12:20:00,
2013-02-15 12:25:00,48.0,44.6,30.15,NW,304,2.0,3.0,88,0.00,,,0.00,Wunderground v.1.15,2013-02-15 12:25:00,
2013-02-15 12:30:00,48.3,44.6,30.15,NW,304,1.0,2.0,87,0.00,,,0.00,Wunderground v.1.15,2013-02-15 12:30:00,
2013-02-15 12:40:00,48.4,44.4,30.15,WNW,290,2.0,3.0,86,0.00,,,0.00,Wunderground v.1.15,2013-02-15 12:40:00,
2013-02-15 12:45:00,48.3,44.3,30.15,WNW,291,2.0,3.0,86,0.00,,,0.00,Wunderground v.1.15,2013-02-15 12:45:00,
2013-02-15 12:55:00,48.2,43.9,30.15,NW,306,2.0,2.0,85,0.00,,,0.00,Wunderground v.1.15,2013-02-15 12:55:00,
2013-02-15 13:05:00,47.9,43.6,30.15,NW,305,3.0,4.0,85,0.00,,,0.00,Wunderground v.1.15,2013-02-15 13:05:00,
2013-02-15 13:10:00,47.6,43.6,30.15,NW,307,3.0,3.0,86,0.00,,,0.00,Wunderground v.1.15,2013-02-15 13:10:00,
2013-02-15 13:15:00,47.8,44.4,30.15,NW,309,2.0,3.0,88,0.00,,,0.00,Wunderground v.1.15,2013-02-15 13:15:00,
2013-02-15 13:20:00,47.8,44.1,30.15,NW,309,2.0,5.0,87,0.00,,,0.00,Wunderground v.1.15,2013-02-15 13:20:00,
2013-02-15 13:30:00,47.7,44.0,30.14,NW,311,3.0,3.0,87,0.00,,,0.00,Wunderground v.1.15,2013-02-15 13:30:00,
2013-02-15 13:35:00,47.6,43.9,30.15,NW,311,2.0,3.0,87,0.00,,,0.00,Wunderground v.1.15,2013-02-15 13:35:00,
2013-02-15 13:40:00,47.6,43.9,30.14,WNW,292,2.0,3.0,87,0.00,,,0.00,Wunderground v.1.15,2013-02-15 13:40:00,
2013-02-15 13:45:00,47.6,43.9,30.14,WNW,298,3.0,3.0,87,0.00,,,0.00,Wunderground v.1.15,2013-02-15 13:45:00,
2013-02-15 13:50:00,47.5,43.8,30.14,WNW,300,3.0,3.0,87,0.00,,,0.00,Wunderground v.1.15,2013-02-15 13:50:00,
2013-02-15 14:00:00,47.3,43.6,30.14,WNW,284,3.0,4.0,87,0.00,,,0.00,Wunderground v.1.15,2013-02-15 14:00:00,
2013-02-15 14:05:00,47.2,43.2,30.14,West,280,3.0,4.0,86,0.00,,,0.00,Wunderground v.1.15,2013-02-15 14:05:00,
2013-02-15 14:10:00,47.2,43.2,30.14,WNW,283,2.0,3.0,86,0.00,,,0.00,Wunderground v.1.15,2013-02-15 14:10:00,
2013-02-15 14:20:00,47.6,43.9,30.14,NW,312,2.0,3.0,87,0.00,,,0.00,Wunderground v.1.15,2013-02-15 14:20:00,
2013-02-15 14:25:00,47.7,43.7,30.14,NW,313,1.0,3.0,86,0.00,,,0.00,Wunderground v.1.15,2013-02-15 14:25:00,
2013-02-15 14:30:00,47.7,43.7,30.14,NW,313,1.0,1.0,86,0.00,,,0.00,Wunderground v.1.15,2013-02-15 14:30:00,
2013-02-15 14:35:00,47.7,43.7,30.14,NW,312,1.0,3.0,86,0.00,,,0.00,Wunderground v.1.15,2013-02-15 14:35:00,
2013-02-15 14:45:00,47.6,43.9,30.14,NW,314,1.0,2.0,87,0.00,,,0.00,Wunderground v.1.15,2013-02-15 14:45:00,
2013-02-15 14:50:00,47.5,43.8,30.14,NW,314,0.0,0.0,87,0.00,,,0.00,Wunderground v.1.15,2013-02-15 14:50:00,
2013-02-15 14:55:00,47.4,43.4,30.14,NW,314,1.0,3.0,86,0.00,,,0.00,Wunderground v.1.15,2013-02-15 14:55:00,
2013-02-15 15:00:00,47.3,43.0,30.14,NW,314,2.0,2.0,85,0.00,,,0.00,Wunderground v.1.15,2013-02-15 15:00:00,
2013-02-15 15:10:00,47.3,43.3,30.13,NW,314,1.0,1.0,86,0.00,,,0.00,Wunderground v.1.15,2013-02-15 15:10:00,
2013-02-15 15:20:00,47.4,43.4,30.14,NW,314,0.0,0.0,86,0.00,,,0.00,Wunderground v.1.15,2013-02-15 15:20:00,
2013-02-15 15:25:00,47.4,43.4,30.14,NW,314,0.0,0.0,86,0.00,,,0.00,Wunderground v.1.15,2013-02-15 15:25:00,
2013-02-15 15:30:00,47.4,43.7,30.14,NW,314,1.0,1.0,87,0.00,,,0.00,Wunderground v.1.15,2013-02-15 15:30:00,
2013-02-15 15:35:00,47.4,43.4,30.14,NW,314,1.0,1.0,86,0.00,,,0.00,Wunderground v.1.15,2013-02-15 15:35:00,
2013-02-15 15:40:00,47.3,43.3,30.14,NW,314,1.0,2.0,86,0.00,,,0.00,Wunderground v.1.15,2013-02-15 15:40:00,
2013-02-15 15:45:00,47.3,43.6,30.14,NW,314,1.0,2.0,87,0.00,,,0.00,Wunderground v.1.15,2013-02-15 15:45:00,
2013-02-15 15:55:00,47.2,43.5,30.14,NW,314,0.0,1.0,87,0.00,,,0.00,Wunderground v.1.15,2013-02-15 15:55:00,
2013-02-15 16:00:00,47.3,43.6,30.14,NW,314,0.0,1.0,87,0.00,,,0.00,Wunderground v.1.15,2013-02-15 16:00:00,
2013-02-15 16:05:00,47.3,43.9,30.14,NW,314,0.0,2.0,88,0.00,,,0.00,Wunderground v.1.15,2013-02-15 16:05:00,
2013-02-15 16:15:00,47.2,43.5,30.14,NW,314,0.0,1.0,87,0.00,,,0.00,Wunderground v.1.15,2013-02-15 16:15:00,
2013-02-15 16:25:00,47.0,43.3,30.14,NW,314,0.0,0.0,87,0.00,,,0.00,Wunderground v.1.15,2013-02-15 16:25:00,
2013-02-15 16:30:00,47.0,43.3,30.14,NW,314,0.0,0.0,87,0.00,,,0.00,Wunderground v.1.15,2013-02-15 16:30:00,
2013-02-15 16:40:00,46.9,43.2,30.14,NW,314,0.0,0.0,87,0.00,,,0.00,Wunderground v.1.15,2013-02-15 16:40:00,
2013-02-15 16:50:00,46.7,43.3,30.14,NW,314,0.0,0.0,88,0.00,,,0.00,Wunderground v.1.15,2013-02-15 16:50:00,
2013-02-15 16:55:00,46.7,43.3,30.15,NW,314,0.0,0.0,88,0.00,,,0.00,Wunderground v.1.15,2013-02-15 16:55:00,
2013-02-15 17:00:00,46.6,43.2,30.15,NW,314,0.0,0.0,88,0.00,,,0.00,Wunderground v.1.15,2013-02-15 17:00:00,
2013-02-15 17:05:00,46.5,43.1,30.15,NW,314,0.0,0.0,88,0.00,,,0.00,Wunderground v.1.15,2013-02-15 17:05:00,
2013-02-15 17:15:00,46.3,43.2,30.15,NW,314,0.0,0.0,89,0.00,,,0.00,Wunderground v.1.15,2013-02-15 17:15:00,
2013-02-15 17:20:00,46.2,43.1,30.15,NW,314,1.0,1.0,89,0.00,,,0.00,Wunderground v.1.15,2013-02-15 17:20:00,
2013-02-15 17:30:00,46.1,43.0,30.15,NW,314,0.0,0.0,89,0.00,,,0.00,Wunderground v.1.15,2013-02-15 17:30:00,
2013-02-15 17:40:00,45.9,43.1,30.15,NW,314,0.0,0.0,90,0.00,,,0.00,Wunderground v.1.15,2013-02-15 17:40:00,
2013-02-15 17:45:00,45.8,43.0,30.15,NW,314,0.0,0.0,90,0.00,,,0.00,Wunderground v.1.15,2013-02-15 17:45:00,
2013-02-15 17:50:00,45.7,42.9,30.15,NW,314,0.0,0.0,90,0.00,,,0.00,Wunderground v.1.15,2013-02-15 17:50:00,
2013-02-15 18:00:00,45.3,42.5,30.15,NW,314,0.0,0.0,90,0.00,,,0.00,Wunderground v.1.15,2013-02-15 18:00:00,
2013-02-15 18:08:00,44.8,41.8,30.15,NW,305,1.0,4.0,89,0.00,,,0.00,Wunderground v.1.15,2013-02-15 18:08:00,
2013-02-15 18:16:00,44.2,41.2,30.15,West,273,3.0,3.0,89,0.00,,,0.00,Wunderground v.1.15,2013-02-15 18:16:00,
2013-02-15 18:25:00,43.8,41.1,30.16,West,273,1.0,1.0,90,0.00,,,0.00,Wunderground v.1.15,2013-02-15 18:25:00,
2013-02-15 18:35:00,43.6,41.1,30.16,West,273,1.0,3.0,91,0.00,,,0.00,Wunderground v.1.15,2013-02-15 18:35:00,
2013-02-15 18:45:00,43.5,41.0,30.16,West,273,1.0,3.0,91,0.00,,,0.00,Wunderground v.1.15,2013-02-15 18:45:00,
2013-02-15 18:55:00,43.4,40.9,30.16,West,273,0.0,0.0,91,0.00,,,0.00,Wunderground v.1.15,2013-02-15 18:55:00,
2013-02-15 19:05:00,43.1,40.7,30.16,West,273,0.0,1.0,91,0.00,,,0.00,Wunderground v.1.15,2013-02-15 19:05:00,
2013-02-15 19:10:00,42.9,40.5,30.16,West,273,1.0,1.0,91,0.00,,,0.00,Wunderground v.1.15,2013-02-15 19:10:00,
2013-02-15 19:20:00,42.5,39.8,30.16,West,273,1.0,1.0,90,0.00,,,0.00,Wunderground v.1.15,2013-02-15 19:20:00,
2013-02-15 19:30:00,42.1,39.4,30.16,West,273,1.0,1.0,90,0.00,,,0.00,Wunderground v.1.15,2013-02-15 19:30:00,
2013-02-15 19:39:00,41.8,38.8,30.16,West,273,1.0,2.0,89,0.00,,,0.00,Wunderground v.1.15,2013-02-15 19:39:00,
2013-02-15 19:49:00,41.5,38.5,30.16,West,262,2.0,2.0,89,0.00,,,0.00,Wunderground v.1.15,2013-02-15 19:49:00,
2013-02-15 19:59:00,41.4,38.1,30.16,West,261,1.0,3.0,88,0.00,,,0.00,Wunderground v.1.15,2013-02-15 19:59:00,
2013-02-15 20:09:00,41.3,38.0,30.16,West,261,1.0,1.0,88,0.00,,,0.00,Wunderground v.1.15,2013-02-15 20:09:00,
2013-02-15 20:19:00,41.3,37.7,30.16,WSW,254,2.0,2.0,87,0.00,,,0.00,Wunderground v.1.15,2013-02-15 20:19:00,
2013-02-15 20:29:00,41.3,37.4,30.16,SW,226,2.0,5.0,86,0.00,,,0.00,Wunderground v.1.15,2013-02-15 20:29:00,
2013-02-15 20:39:00,41.1,37.5,30.16,South,182,4.0,4.0,87,0.00,,,0.00,Wunderground v.1.15,2013-02-15 20:39:00,
2013-02-15 20:49:00,41.1,38.1,30.16,South,186,4.0,4.0,89,0.00,,,0.00,Wunderground v.1.15,2013-02-15 20:49:00,
2013-02-15 20:59:00,41.1,38.1,30.16,South,178,4.0,4.0,89,0.00,,,0.00,Wunderground v.1.15,2013-02-15 20:59:00,
2013-02-15 21:09:00,40.9,38.2,30.16,South,173,5.0,5.0,90,0.00,,,0.00,Wunderground v.1.15,2013-02-15 21:09:00,
2013-02-15 21:19:00,40.7,38.0,30.16,South,187,4.0,4.0,90,0.00,,,0.00,Wunderground v.1.15,2013-02-15 21:19:00,
2013-02-15 21:28:00,40.4,37.7,30.16,South,182,4.0,6.0,90,0.00,,,0.00,Wunderground v.1.15,2013-02-15 21:28:00,
2013-02-15 21:34:00,40.2,37.5,30.16,South,181,5.0,6.0,90,0.00,,,0.00,Wunderground v.1.15,2013-02-15 21:34:00,
2013-02-15 21:45:00,40.0,37.3,30.17,South,189,5.0,6.0,90,0.00,,,0.00,Wunderground v.1.15,2013-02-15 21:45:00,
2013-02-15 21:55:00,40.0,37.3,30.16,South,182,5.0,6.0,90,0.00,,,0.00,Wunderground v.1.15,2013-02-15 21:55:00,
2013-02-15 22:00:00,40.0,37.3,30.16,South,182,5.0,5.0,90,0.00,,,0.00,Wunderground v.1.15,2013-02-15 22:00:00,
2013-02-15 22:10:00,40.1,37.7,30.16,South,186,5.0,6.0,91,0.00,,,0.00,Wunderground v.1.15,2013-02-15 22:10:00,
2013-02-15 22:19:00,40.0,37.3,30.16,South,188,5.0,6.0,90,0.00,,,0.00,Wunderground v.1.15,2013-02-15 22:19:00,
2013-02-15 22:29:00,39.8,37.1,30.16,South,175,5.0,6.0,90,0.00,,,0.00,Wunderground v.1.15,2013-02-15 22:29:00,
2013-02-15 22:40:00,40.0,37.3,30.16,SSE,166,7.0,8.0,90,0.00,,,0.00,Wunderground v.1.15,2013-02-15 22:40:00,
2013-02-15 22:49:00,40.2,37.5,30.16,SSE,167,8.0,9.0,90,0.00,,,0.00,Wunderground v.1.15,2013-02-15 22:49:00,
2013-02-15 22:59:00,40.2,37.2,30.16,SSE,163,8.0,8.0,89,0.00,,,0.00,Wunderground v.1.15,2013-02-15 22:59:00,
2013-02-15 23:04:00,40.4,37.1,30.16,SSE,165,8.0,9.0,88,0.00,,,0.00,Wunderground v.1.15,2013-02-15 23:04:00,
2013-02-15 23:14:00,40.6,36.7,30.16,South,171,9.0,10.0,86,0.00,,,0.00,Wunderground v.1.15,2013-02-15 23:14:00,
2013-02-15 23:24:00,40.5,36.6,30.16,SSE,165,9.0,10.0,86,0.00,,,0.00,Wunderground v.1.15,2013-02-15 23:24:00,
2013-02-15 23:34:00,40.4,36.5,30.16,SSE,163,10.0,10.0,86,0.00,,,0.00,Wunderground v.1.15,2013-02-15 23:34:00,
2013-02-15 23:44:00,40.2,36.6,30.16,SSE,164,10.0,11.0,87,0.00,,,0.00,Wunderground v.1.15,2013-02-15 23:44:00,
2013-02-15 23:54:00,40.1,36.5,30.16,SSE,166,10.0,10.0,87,0.00,,,0.00,Wunderground v.1.15,2013-02-15 23:54:00,